Time;durP1;ratioP1;P1;durP2;ratioP2;P2;SDS_P1;SDS_P2;PMS_P1;PMS_P2;Temp;Humidity;BMP_temperature;BMP_pressure;BME280_temperature;BME280_humidity;BME280_pressure;Samples;Min_cycle;Max_cycle;Signal;HPM_P1;HPM_P2
2023/05/20 00:00:00;;;;;;;7.18;1.45;;;;;;;13.60;100.00;96306.75;5077014;28;20718;-71
2023/05/20 00:02:26;;;;;;;6.53;2.33;;;;;;;13.60;100.00;96304.91;5077644;28;20268;-72
2023/05/20 00:04:53;;;;;;;1.30;1.17;;;;;;;13.66;100.00;96308.63;5076607;28;20462;-73
2023/05/20 00:07:19;;;;;;;2.70;1.45;;;;;;;13.58;100.00;96311.41;5076710;28;20227;-75
2023/05/20 00:09:46;;;;;;;3.03;1.10;;;;;;;13.65;100.00;96309.63;5076860;28;20675;-71
2023/05/20 00:12:14;;;;;;;2.60;1.48;;;;;;;13.68;100.00;96306.59;5076456;28;20630;-69
2023/05/20 00:14:40;;;;;;;1.45;0.90;;;;;;;13.58;100.00;96301.63;5077334;28;20207;-73
2023/05/20 00:17:07;;;;;;;1.08;0.98;;;;;;;13.59;100.00;96297.16;5076834;28;20231;-72
2023/05/20 00:19:33;;;;;;;1.30;1.02;;;;;;;13.60;100.00;96309.38;5075731;28;20513;-72
2023/05/20 00:21:59;;;;;;;2.58;1.27;;;;;;;13.58;100.00;96299.00;5077173;28;20199;-72
2023/05/20 00:24:26;;;;;;;1.27;0.93;;;;;;;13.53;100.00;96293.47;5077100;28;20212;-71
2023/05/20 00:26:53;;;;;;;1.70;1.08;;;;;;;13.46;100.00;96297.06;5076263;28;20394;-70
2023/05/20 00:29:21;;;;;;;0.98;0.90;;;;;;;13.54;100.00;96292.44;5076139;28;20207;-73
2023/05/20 00:31:48;;;;;;;1.92;1.63;;;;;;;13.41;100.00;96284.41;5077637;28;20273;-69
2023/05/20 00:34:14;;;;;;;3.38;1.42;;;;;;;13.35;100.00;96286.19;5076375;28;20207;-73
2023/05/20 00:36:41;;;;;;;1.58;1.40;;;;;;;13.39;100.00;96289.09;5076491;28;20231;-70
2023/05/20 00:39:08;;;;;;;1.35;1.23;;;;;;;13.28;100.00;96286.16;5076273;28;20322;-70
2023/05/20 00:41:35;;;;;;;2.15;1.05;;;;;;;13.27;100.00;96289.78;5076681;28;20204;-72
2023/05/20 00:44:01;;;;;;;2.08;1.02;;;;;;;13.20;100.00;96286.28;5076492;28;21087;-75
2023/05/20 00:46:29;;;;;;;1.63;1.10;;;;;;;13.35;100.00;96280.91;5076603;28;20204;-70
2023/05/20 00:48:56;;;;;;;2.03;1.30;;;;;;;13.25;100.00;96277.75;5074543;28;20207;-70
2023/05/20 00:51:23;;;;;;;2.55;1.20;;;;;;;13.22;100.00;96272.88;5076326;28;20211;-74
2023/05/20 00:53:50;;;;;;;0.70;0.70;;;;;;;13.25;100.00;96270.66;5076084;28;20199;-74
2023/05/20 00:56:16;;;;;;;1.20;1.07;;;;;;;13.23;100.00;96274.50;5076569;28;20581;-73
2023/05/20 00:58:43;;;;;;;1.73;1.25;;;;;;;13.07;100.00;96274.78;5075586;28;20228;-75
2023/05/20 01:01:09;;;;;;;1.10;0.90;;;;;;;13.06;100.00;96283.72;5076379;28;20208;-70
2023/05/20 01:03:38;;;;;;;1.75;1.10;;;;;;;13.04;100.00;96280.44;5076615;28;20207;-69
2023/05/20 01:06:04;;;;;;;1.60;1.02;;;;;;;12.93;100.00;96275.66;5076102;28;20294;-75
2023/05/20 01:08:32;;;;;;;2.60;1.00;;;;;;;13.05;100.00;96266.22;5075312;28;20231;-74
2023/05/20 01:11:04;;;;;;;3.47;1.17;;;;;;;13.12;100.00;96272.38;5075865;28;20216;-75
2023/05/20 01:13:35;;;;;;;1.92;1.00;;;;;;;13.07;100.00;96272.13;5076315;28;20633;-75
2023/05/20 01:16:03;;;;;;;1.40;1.10;;;;;;;13.14;100.00;96267.72;5076289;28;20215;-72
2023/05/20 01:18:32;;;;;;;2.17;1.40;;;;;;;13.10;100.00;96274.41;5075214;28;20223;-70
2023/05/20 01:21:02;;;;;;;1.48;0.98;;;;;;;13.11;100.00;96266.28;5075718;28;20663;-69
2023/05/20 01:23:34;;;;;;;2.05;1.15;;;;;;;13.19;100.00;96265.31;5076683;28;21067;-72
2023/05/20 01:26:00;;;;;;;1.80;1.30;;;;;;;13.03;100.00;96262.94;5075758;28;20204;-74
2023/05/20 01:28:29;;;;;;;1.85;1.65;;;;;;;13.08;100.00;96263.19;5074862;28;20227;-72
2023/05/20 01:30:58;;;;;;;1.58;0.98;;;;;;;13.12;100.00;96265.28;5075560;28;20442;-71
2023/05/20 01:33:25;;;;;;;4.28;1.50;;;;;;;13.12;100.00;96267.06;5075602;28;20304;-69
2023/05/20 01:35:52;;;;;;;3.45;1.33;;;;;;;13.18;100.00;96261.84;5076331;28;20199;-73
2023/05/20 01:38:19;;;;;;;1.30;1.20;;;;;;;13.18;100.00;96267.13;5074870;28;20594;-72
2023/05/20 01:40:48;;;;;;;1.95;1.55;;;;;;;13.27;100.00;96265.97;5075890;28;20553;-71
2023/05/20 01:43:15;;;;;;;2.05;1.42;;;;;;;13.26;100.00;96266.16;5076212;28;20340;-69
2023/05/20 01:45:42;;;;;;;1.65;1.27;;;;;;;13.23;100.00;96259.44;5076392;28;20199;-69
2023/05/20 01:48:11;;;;;;;1.35;1.13;;;;;;;13.32;100.00;96257.47;5074066;28;20615;-72
2023/05/20 01:50:37;;;;;;;1.55;1.33;;;;;;;13.30;100.00;96254.19;5075026;28;20212;-73
2023/05/20 01:53:04;;;;;;;1.75;1.17;;;;;;;13.08;100.00;96255.25;5076467;28;20204;-76
2023/05/20 01:55:31;;;;;;;1.45;1.35;;;;;;;13.18;100.00;96259.19;5076472;28;20667;-69
2023/05/20 01:57:58;;;;;;;1.08;0.90;;;;;;;13.27;100.00;96260.69;5074408;28;20232;-70
2023/05/20 02:00:25;;;;;;;2.05;1.23;;;;;;;13.23;100.00;96264.72;5076626;28;20235;-69
2023/05/20 02:02:52;;;;;;;1.33;1.10;;;;;;;13.25;100.00;96267.19;5080507;28;20326;-72
2023/05/20 02:05:18;;;;;;;1.75;1.38;;;;;;;13.21;100.00;96260.63;5079419;28;20203;-72
2023/05/20 02:07:45;;;;;;;1.88;1.63;;;;;;;13.25;100.00;96262.72;5078708;28;20226;-76
2023/05/20 02:10:11;;;;;;;1.75;1.20;;;;;;;13.33;100.00;96254.63;5077476;28;20207;-72
2023/05/20 02:12:38;;;;;;;2.03;1.73;;;;;;;13.20;100.00;96259.81;5078624;28;20583;-70
2023/05/20 02:15:07;;;;;;;2.38;1.23;;;;;;;13.30;100.00;96248.91;5079491;28;20707;-72
2023/05/20 02:17:33;;;;;;;2.08;1.30;;;;;;;13.17;100.00;96257.53;5078832;28;20660;-73
2023/05/20 02:20:00;;;;;;;1.90;1.33;;;;;;;13.22;100.00;96252.50;5078852;28;20235;-73
2023/05/20 02:22:26;;;;;;;2.85;1.80;;;;;;;13.24;100.00;96254.94;5078571;28;20211;-73
2023/05/20 02:24:53;;;;;;;1.98;1.33;;;;;;;13.17;100.00;96248.81;5079261;28;20200;-75
2023/05/20 02:27:19;;;;;;;2.05;1.38;;;;;;;13.18;100.00;96250.44;5079239;28;20239;-71
2023/05/20 02:29:46;;;;;;;1.70;1.58;;;;;;;13.18;100.00;96247.81;5079097;28;20203;-76
2023/05/20 02:32:13;;;;;;;2.42;1.38;;;;;;;13.34;100.00;96247.50;5079195;28;20203;-76
2023/05/20 02:34:40;;;;;;;1.05;0.90;;;;;;;13.28;100.00;96245.66;5078908;28;20211;-70
2023/05/20 02:37:06;;;;;;;2.15;1.70;;;;;;;13.32;100.00;96246.88;5079728;28;20588;-73
2023/05/20 02:39:33;;;;;;;1.15;0.82;;;;;;;13.21;100.00;96244.75;5078421;28;20232;-72
2023/05/20 02:41:59;;;;;;;2.75;1.73;;;;;;;13.09;100.00;96248.97;5078846;28;20203;-69
2023/05/20 02:44:26;;;;;;;2.30;1.75;;;;;;;13.20;100.00;96248.41;5079714;28;20612;-69
2023/05/20 02:46:52;;;;;;;2.88;1.30;;;;;;;13.16;100.00;96257.75;5078913;28;20223;-71
2023/05/20 02:49:20;;;;;;;2.75;1.60;;;;;;;13.31;100.00;96245.25;5077969;28;20200;-70
2023/05/20 02:51:47;;;;;;;2.45;1.35;;;;;;;13.22;100.00;96257.00;5078963;28;20207;-70
2023/05/20 02:54:13;;;;;;;4.10;1.80;;;;;;;13.27;100.00;96238.72;5078639;28;20200;-72
2023/05/20 02:56:39;;;;;;;3.40;1.60;;;;;;;13.26;100.00;96245.00;5078581;28;20224;-71
2023/05/20 02:59:07;;;;;;;2.83;1.75;;;;;;;13.24;100.00;96244.38;5078701;28;20228;-70
2023/05/20 03:01:34;;;;;;;2.08;1.58;;;;;;;13.28;100.00;96245.66;5078174;28;20203;-70
2023/05/20 03:04:00;;;;;;;1.42;1.27;;;;;;;13.18;100.00;96231.94;5078606;28;20501;-69
2023/05/20 03:06:29;;;;;;;2.28;1.52;;;;;;;13.29;100.00;96234.03;5079038;28;20579;-73
2023/05/20 03:08:56;;;;;;;2.25;1.38;;;;;;;13.11;100.00;96238.97;5077956;28;20633;-75
2023/05/20 03:11:23;;;;;;;1.88;1.15;;;;;;;13.13;100.00;96243.06;5077503;28;20261;-73
2023/05/20 03:13:50;;;;;;;1.88;1.33;;;;;;;13.16;100.00;96241.88;5078876;28;21031;-72
2023/05/20 03:16:17;;;;;;;1.98;1.38;;;;;;;13.27;100.00;96244.00;5078933;28;20292;-72
2023/05/20 03:18:43;;;;;;;1.55;1.35;;;;;;;13.29;100.00;96247.25;5077183;28;20672;-73
2023/05/20 03:21:10;;;;;;;2.08;1.40;;;;;;;13.22;100.00;96251.69;5077848;28;20695;-71
2023/05/20 03:23:37;;;;;;;3.30;1.63;;;;;;;13.34;100.00;96247.50;5079020;28;20208;-72
2023/05/20 03:26:05;;;;;;;1.70;1.52;;;;;;;13.22;100.00;96263.09;5078020;28;20199;-71
2023/05/20 03:28:32;;;;;;;1.67;1.13;;;;;;;13.27;100.00;96251.94;5077690;28;20227;-73
2023/05/20 03:30:58;;;;;;;2.05;1.30;;;;;;;13.33;100.00;96245.84;5078907;28;20200;-75
2023/05/20 03:33:26;;;;;;;2.20;1.50;;;;;;;13.31;100.00;96239.94;5078703;28;20214;-74
2023/05/20 03:35:52;;;;;;;2.47;1.60;;;;;;;13.29;100.00;96247.25;5078614;28;20467;-70
2023/05/20 03:38:18;;;;;;;3.47;2.30;;;;;;;13.30;100.00;96246.25;5078043;28;20224;-75
2023/05/20 03:40:46;;;;;;;2.83;1.67;;;;;;;13.36;100.00;96240.19;5078317;28;20223;-71
2023/05/20 03:43:13;;;;;;;2.05;1.25;;;;;;;13.21;100.00;96242.13;5078657;28;20204;-73
2023/05/20 03:45:39;;;;;;;1.95;1.25;;;;;;;13.13;100.00;96250.19;5078497;28;20215;-74
2023/05/20 03:48:06;;;;;;;1.77;1.17;;;;;;;13.20;100.00;96248.41;5077527;28;20235;-74
2023/05/20 03:50:32;;;;;;;2.17;1.17;;;;;;;13.21;100.00;96242.13;5078258;28;20211;-70
2023/05/20 03:52:59;;;;;;;3.10;1.75;;;;;;;13.10;100.00;96237.38;5078651;28;20206;-73
2023/05/20 03:55:26;;;;;;;1.50;1.33;;;;;;;12.98;100.00;96236.25;5077710;28;20208;-74
2023/05/20 03:57:54;;;;;;;3.67;1.83;;;;;;;13.16;100.00;96236.56;5076876;28;20628;-72
2023/05/20 04:00:21;;;;;;;3.38;1.50;;;;;;;13.11;100.00;96246.91;5077882;28;20272;-74
2023/05/20 04:02:48;;;;;;;1.73;1.52;;;;;;;13.08;100.00;96253.41;5077973;28;20191;-72
2023/05/20 04:05:14;;;;;;;1.73;1.55;;;;;;;13.15;100.00;96245.53;5078194;28;20208;-74
2023/05/20 04:07:41;;;;;;;2.38;1.65;;;;;;;13.14;100.00;96243.91;5077310;28;20223;-71
2023/05/20 04:10:08;;;;;;;4.78;2.13;;;;;;;13.20;100.00;96237.81;5077128;28;21189;-74
2023/05/20 04:12:37;;;;;;;1.45;1.10;;;;;;;13.24;100.00;96228.50;5077447;28;20204;-75
2023/05/20 04:15:06;;;;;;;1.20;1.10;;;;;;;13.29;100.00;96232.22;5077595;28;20208;-75
2023/05/20 04:17:32;;;;;;;2.45;1.70;;;;;;;13.29;100.00;96232.22;5076734;28;20260;-71
2023/05/20 04:19:59;;;;;;;2.55;1.48;;;;;;;13.27;100.00;96233.41;5077533;28;20231;-70
2023/05/20 04:22:25;;;;;;;3.10;1.50;;;;;;;13.32;100.00;96233.66;5077413;28;20290;-70
2023/05/20 04:24:52;;;;;;;2.17;1.40;;;;;;;13.35;100.00;96230.59;5077403;28;20195;-72
2023/05/20 04:27:19;;;;;;;2.65;1.38;;;;;;;13.27;100.00;96234.22;5078060;28;20226;-69
2023/05/20 04:29:46;;;;;;;2.13;1.42;;;;;;;13.25;100.00;96228.31;5076827;28;20234;-70
2023/05/20 04:32:17;;;;;;;4.30;1.65;;;;;;;13.24;100.00;96223.19;5077558;28;20203;-75
2023/05/20 04:34:44;;;;;;;1.65;1.20;;;;;;;13.33;100.00;96227.31;5077917;28;20210;-70
2023/05/20 04:37:12;;;;;;;3.78;1.85;;;;;;;13.38;100.00;96226.56;5077412;28;20277;-76
2023/05/20 04:39:39;;;;;;;3.22;1.45;;;;;;;13.40;100.00;96235.13;5076568;28;20289;-69
2023/05/20 04:42:05;;;;;;;2.72;1.58;;;;;;;13.46;100.00;96229.03;5077198;28;20210;-72
2023/05/20 04:44:32;;;;;;;2.28;1.52;;;;;;;13.43;100.00;96231.28;5077168;28;20207;-69
2023/05/20 04:46:58;;;;;;;3.83;2.00;;;;;;;13.41;100.00;96226.16;5077344;28;20240;-71
2023/05/20 04:49:27;;;;;;;2.10;1.15;;;;;;;13.53;100.00;96213.19;5076419;28;20204;-74
2023/05/20 04:51:54;;;;;;;2.38;1.63;;;;;;;13.47;100.00;96214.81;5076873;28;20204;-70
2023/05/20 04:54:21;;;;;;;1.13;1.02;;;;;;;13.53;100.00;96213.19;5077375;28;20264;-74
2023/05/20 04:56:47;;;;;;;4.05;2.15;;;;;;;13.43;100.00;96223.34;5077083;28;20220;-68
2023/05/20 04:59:14;;;;;;;3.92;2.55;;;;;;;13.62;100.00;96215.50;5076216;28;20774;-74
2023/05/20 05:01:40;;;;;;;3.75;2.08;;;;;;;13.73;100.00;96207.00;5076959;28;20234;-74
2023/05/20 05:04:07;;;;;;;3.67;2.08;;;;;;;13.73;100.00;96212.28;5076505;28;20211;-75
2023/05/20 05:06:35;;;;;;;3.45;2.08;;;;;;;13.71;100.00;96219.63;5076924;28;20790;-71
2023/05/20 05:09:01;;;;;;;4.35;2.53;;;;;;;13.63;100.00;96216.31;5076400;28;20214;-69
2023/05/20 05:11:28;;;;;;;4.65;2.22;;;;;;;13.55;100.00;96219.94;5077234;28;20269;-70
2023/05/20 05:13:55;;;;;;;5.78;2.13;;;;;;;13.72;100.00;96213.31;5077605;28;20200;-70
2023/05/20 05:16:22;;;;;;;5.70;3.15;;;;;;;13.61;100.00;96219.16;5076417;28;20208;-69
2023/05/20 05:18:48;;;;;;;10.60;2.28;;;;;;;13.62;100.00;96212.03;5076035;28;20200;-76
2023/05/20 05:21:15;;;;;;;3.20;2.05;;;;;;;13.65;100.00;96201.88;5076946;28;20231;-69
2023/05/20 05:23:42;;;;;;;3.22;1.77;;;;;;;13.82;100.00;96208.47;5076698;28;20200;-73
2023/05/20 05:26:09;;;;;;;3.70;2.25;;;;;;;13.68;100.00;96214.75;5076120;28;20203;-75
2023/05/20 05:28:35;;;;;;;3.80;1.52;;;;;;;13.77;100.00;96204.78;5075834;28;20228;-71
2023/05/20 05:31:02;;;;;;;2.53;2.17;;;;;;;13.79;100.00;96203.56;5076205;28;20685;-72
2023/05/20 05:33:28;;;;;;;1.90;1.65;;;;;;;13.85;100.00;96208.09;5076491;28;20208;-76
2023/05/20 05:35:57;;;;;;;3.10;1.38;;;;;;;13.54;100.00;96210.38;5076238;28;20208;-71
2023/05/20 05:38:24;;;;;;;4.15;1.85;;;;;;;13.68;100.00;96217.38;5075950;28;20595;-74
2023/05/20 05:40:52;;;;;;;3.03;1.55;;;;;;;13.90;100.00;96204.81;5076095;28;20230;-75
2023/05/20 05:43:19;;;;;;;2.90;1.77;;;;;;;13.74;100.00;96211.28;5076318;28;20734;-69
2023/05/20 05:45:45;;;;;;;2.97;1.88;;;;;;;13.72;100.00;96207.19;5076649;28;20801;-74
2023/05/20 05:48:12;;;;;;;4.03;1.80;;;;;;;13.77;100.00;96210.06;5075372;28;20665;-68
2023/05/20 05:50:38;;;;;;;3.72;1.60;;;;;;;13.86;100.00;96203.59;5076241;28;20208;-69
2023/05/20 05:53:05;;;;;;;5.13;2.05;;;;;;;13.63;100.00;96203.91;5076193;28;20200;-70
2023/05/20 05:55:32;;;;;;;3.90;2.55;;;;;;;13.68;100.00;96209.44;5076602;28;20199;-68
2023/05/20 05:57:59;;;;;;;5.40;2.38;;;;;;;13.82;100.00;96211.09;5075543;28;20231;-70
2023/05/20 06:00:26;;;;;;;3.72;2.05;;;;;;;13.77;100.00;96210.06;5076212;28;20224;-68
2023/05/20 06:02:52;;;;;;;2.88;1.88;;;;;;;13.76;100.00;96219.84;5076560;28;20206;-69
2023/05/20 06:05:19;;;;;;;3.25;2.05;;;;;;;13.72;100.00;96215.13;5076138;28;20211;-69
2023/05/20 06:07:45;;;;;;;2.88;1.77;;;;;;;13.77;100.00;96215.38;5075249;28;20312;-68
2023/05/20 06:10:12;;;;;;;3.83;2.08;;;;;;;13.93;100.00;96213.19;5075616;28;20223;-69
2023/05/20 06:12:38;;;;;;;5.20;2.70;;;;;;;13.83;100.00;96209.28;5076069;28;20204;-71
2023/05/20 06:15:08;;;;;;;5.65;2.25;;;;;;;13.98;100.00;96202.84;5075670;28;20200;-69
2023/05/20 06:17:34;;;;;;;3.70;2.42;;;;;;;13.95;100.00;96202.41;5075479;28;20223;-69
2023/05/20 06:20:00;;;;;;;4.68;2.60;;;;;;;13.95;100.00;96208.53;5075627;28;20583;-70
2023/05/20 06:22:27;;;;;;;6.25;3.10;;;;;;;13.90;100.00;96213.59;5073910;28;20208;-70
2023/05/20 06:24:59;;;;;;;3.83;2.03;;;;;;;14.00;100.00;96216.69;5075291;28;20580;-72
2023/05/20 06:27:26;;;;;;;7.50;2.97;;;;;;;13.94;100.00;96216.66;5072239;28;20216;-73
2023/05/20 06:29:52;;;;;;;2.63;1.83;;;;;;;13.84;100.00;96219.69;5072685;28;20199;-69
2023/05/20 06:32:20;;;;;;;7.57;2.40;;;;;;;14.02;100.00;96215.47;5075152;28;20214;-73
2023/05/20 06:34:46;;;;;;;4.72;2.65;;;;;;;13.90;100.00;96224.19;5075534;28;20983;-71
2023/05/20 06:37:13;;;;;;;5.15;2.33;;;;;;;13.95;100.00;96219.13;5074855;28;20223;-69
2023/05/20 06:39:40;;;;;;;5.82;2.78;;;;;;;14.18;100.00;96217.00;5074849;28;20210;-71
2023/05/20 06:42:07;;;;;;;5.72;3.08;;;;;;;14.19;100.00;96210.66;5075146;28;20223;-73
2023/05/20 06:44:33;;;;;;;3.85;3.05;;;;;;;14.25;100.00;96210.69;5075246;28;20204;-73
2023/05/20 06:46:59;;;;;;;5.47;2.25;;;;;;;14.27;100.00;96207.84;5075660;28;20224;-72
2023/05/20 06:49:27;;;;;;;4.63;2.13;;;;;;;14.28;100.00;96209.47;5077491;28;20203;-71
2023/05/20 06:51:54;;;;;;;7.30;3.25;;;;;;;14.23;100.00;96212.72;5079454;28;20204;-74
2023/05/20 06:54:20;;;;;;;7.07;3.78;;;;;;;14.27;100.00;96207.84;5078966;28;20319;-69
2023/05/20 06:56:47;;;;;;;3.33;2.17;;;;;;;14.29;100.00;96209.25;5078860;28;21050;-73
2023/05/20 06:59:13;;;;;;;6.15;3.08;;;;;;;14.26;100.00;96203.56;5078840;28;20656;-71
2023/05/20 07:01:40;;;;;;;3.35;1.88;;;;;;;14.34;100.00;96208.69;5078454;28;21034;-68
2023/05/20 07:04:06;;;;;;;6.15;2.03;;;;;;;14.39;100.00;96207.03;5078531;28;20216;-67
2023/05/20 07:06:34;;;;;;;4.25;2.10;;;;;;;14.49;100.00;96202.19;5078819;28;20195;-70
2023/05/20 07:09:00;;;;;;;4.45;2.40;;;;;;;14.55;100.00;96204.03;5077619;28;20235;-74
2023/05/20 07:11:27;;;;;;;4.72;3.03;;;;;;;14.49;100.00;96209.34;5078092;28;20202;-72
2023/05/20 07:13:54;;;;;;;5.95;2.65;;;;;;;14.54;100.00;96199.75;5077772;28;20675;-70
2023/05/20 07:16:20;;;;;;;3.47;1.90;;;;;;;14.59;100.00;96201.78;5077845;28;20227;-72
2023/05/20 07:18:47;;;;;;;4.28;2.13;;;;;;;14.61;100.00;96197.91;5077368;28;20200;-72
2023/05/20 07:21:13;;;;;;;4.72;2.45;;;;;;;14.62;100.00;96196.88;5077981;28;20722;-70
2023/05/20 07:23:41;;;;;;;4.85;2.50;;;;;;;14.94;100.00;96188.13;5077882;28;20203;-71
2023/05/20 07:26:08;;;;;;;5.45;2.55;;;;;;;14.82;100.00;96179.97;5077994;28;20215;-75
2023/05/20 07:28:35;;;;;;;4.65;2.45;;;;;;;14.97;100.00;96177.94;5077638;28;20219;-75
2023/05/20 07:31:02;;;;;;;3.78;2.72;;;;;;;15.02;100.00;96177.31;5078244;28;20232;-73
2023/05/20 07:33:29;;;;;;;4.80;2.80;;;;;;;14.96;100.00;96178.13;5077193;28;20200;-73
2023/05/20 07:35:55;;;;;;;3.88;1.73;;;;;;;15.19;100.00;96176.69;5076682;28;20233;-70
2023/05/20 07:38:22;;;;;;;4.65;2.55;;;;;;;15.19;100.00;96174.03;5077272;28;20598;-71
2023/05/20 07:40:50;;;;;;;3.55;2.35;;;;;;;15.19;100.00;96182.00;5077820;28;20220;-73
2023/05/20 07:43:16;;;;;;;5.97;3.17;;;;;;;15.24;100.00;96171.59;5077689;28;20199;-72
2023/05/20 07:45:43;;;;;;;3.47;2.20;;;;;;;15.49;100.00;96164.59;5077065;28;20199;-70
2023/05/20 07:48:09;;;;;;;5.13;2.60;;;;;;;15.43;100.00;96176.06;5077256;28;20223;-72
2023/05/20 07:50:36;;;;;;;3.03;2.05;;;;;;;15.44;100.00;96178.50;5077674;28;20196;-71
2023/05/20 07:53:03;;;;;;;3.80;2.38;;;;;;;15.55;100.00;96177.84;5077495;28;20238;-73
2023/05/20 07:55:30;;;;;;;2.60;1.95;;;;;;;15.74;99.55;96170.84;5076665;28;20210;-73
2023/05/20 07:57:57;;;;;;;4.47;2.47;;;;;;;15.80;100.00;96183.31;5076539;28;20223;-74
2023/05/20 08:00:24;;;;;;;5.03;2.67;;;;;;;15.67;100.00;96173.53;5076980;28;20204;-73
2023/05/20 08:02:50;;;;;;;2.72;1.80;;;;;;;15.33;98.96;96175.66;5077809;28;20200;-70
2023/05/20 08:05:17;;;;;;;5.97;2.95;;;;;;;15.56;99.80;96176.03;5077499;28;20203;-69
2023/05/20 08:07:44;;;;;;;3.88;2.20;;;;;;;15.72;100.00;96170.22;5076427;28;20230;-70
2023/05/20 08:10:11;;;;;;;10.45;3.13;;;;;;;15.92;96.79;96167.31;5077503;28;20207;-70
2023/05/20 08:12:37;;;;;;;3.78;2.47;;;;;;;15.86;98.44;96173.47;5077385;28;20223;-70
2023/05/20 08:15:06;;;;;;;4.05;2.63;;;;;;;15.89;97.24;96165.06;5076839;28;20200;-68
2023/05/20 08:17:33;;;;;;;4.28;2.70;;;;;;;15.98;99.60;96168.28;5075780;28;20258;-69
2023/05/20 08:20:00;;;;;;;3.08;2.30;;;;;;;15.87;97.05;96164.47;5077311;28;20227;-69
2023/05/20 08:22:27;;;;;;;5.97;3.05;;;;;;;15.97;94.58;96164.00;5076444;28;20723;-69
2023/05/20 08:24:53;;;;;;;4.35;2.78;;;;;;;16.17;94.94;96168.19;5076085;28;20200;-68
2023/05/20 08:27:20;;;;;;;4.75;2.97;;;;;;;16.41;96.38;96170.13;5076256;28;20231;-69
2023/05/20 08:29:46;;;;;;;7.50;3.33;;;;;;;16.81;92.09;96174.16;5076938;28;20294;-70
2023/05/20 08:32:14;;;;;;;5.10;3.13;;;;;;;16.86;95.17;96171.66;5076579;28;20446;-69
2023/05/20 08:34:41;;;;;;;4.03;2.22;;;;;;;16.78;93.54;96169.28;5076920;28;20200;-68
2023/05/20 08:37:08;;;;;;;4.95;2.15;;;;;;;17.01;91.70;96164.16;5077528;28;20224;-69
2023/05/20 08:39:34;;;;;;;4.93;2.53;;;;;;;17.03;90.61;96162.09;5076143;28;20203;-70
2023/05/20 08:42:01;;;;;;;6.43;3.72;;;;;;;17.06;88.38;96162.47;5077359;28;20223;-68
2023/05/20 08:44:29;;;;;;;9.32;2.35;;;;;;;17.49;94.07;96158.81;5077888;28;20200;-69
2023/05/20 08:46:56;;;;;;;4.72;2.45;;;;;;;17.93;92.50;96158.50;5076780;28;20223;-69
2023/05/20 08:49:24;;;;;;;3.67;2.47;;;;;;;18.03;83.64;96150.78;5074206;28;20207;-73
2023/05/20 08:51:51;;;;;;;5.00;2.38;;;;;;;17.93;85.18;96150.50;5077525;28;20196;-71
2023/05/20 08:54:19;;;;;;;5.15;2.60;;;;;;;18.03;83.50;96158.78;5076580;28;20200;-72
2023/05/20 08:56:46;;;;;;;3.60;2.30;;;;;;;18.10;84.06;96146.16;5076266;28;20995;-69
2023/05/20 08:59:13;;;;;;;8.25;2.42;;;;;;;18.00;89.83;96148.56;5076237;28;20207;-75
2023/05/20 09:01:42;;;;;;;6.07;3.25;;;;;;;17.88;85.66;96155.69;5077494;28;20672;-71
2023/05/20 09:04:09;;;;;;;6.90;3.35;;;;;;;17.71;86.73;96159.19;5076804;28;20200;-69
2023/05/20 09:06:44;;;;;;;3.45;2.58;;;;;;;18.06;85.13;96155.66;5076315;28;20300;-74
2023/05/20 09:09:11;;;;;;;9.15;2.60;;;;;;;18.22;84.79;96158.56;5074354;28;20199;-72
2023/05/20 09:11:39;;;;;;;5.03;2.58;;;;;;;18.43;89.34;96153.53;5075988;28;20617;-74
2023/05/20 09:14:06;;;;;;;4.93;2.95;;;;;;;18.35;87.01;96153.03;5076906;28;20199;-72
2023/05/20 09:16:32;;;;;;;3.72;2.28;;;;;;;18.73;89.78;96154.31;5076408;28;20203;-72
2023/05/20 09:18:59;;;;;;;4.07;2.67;;;;;;;18.81;85.22;96164.66;5075512;28;20200;-69
2023/05/20 09:21:26;;;;;;;4.13;2.58;;;;;;;19.08;83.42;96158.69;5075575;28;20227;-73
2023/05/20 09:23:56;;;;;;;4.93;2.53;;;;;;;18.88;80.39;96157.38;5075901;28;20200;-69
2023/05/20 09:26:23;;;;;;;4.35;2.30;;;;;;;18.78;86.04;96151.75;5076600;28;20208;-72
2023/05/20 09:28:50;;;;;;;3.72;2.42;;;;;;;18.54;82.80;96146.59;5075717;28;20884;-69
2023/05/20 09:31:17;;;;;;;3.30;2.40;;;;;;;18.64;83.00;96150.34;5075418;28;20721;-70
2023/05/20 09:33:43;;;;;;;4.57;2.38;;;;;;;18.94;82.49;96146.56;5076804;28;20215;-70
2023/05/20 09:36:10;;;;;;;4.28;2.80;;;;;;;19.52;80.00;96143.94;5076619;28;20214;-69
2023/05/20 09:38:38;;;;;;;5.43;3.13;;;;;;;19.38;76.30;96143.34;5076074;28;20235;-69
2023/05/20 09:41:08;;;;;;;5.55;2.88;;;;;;;19.67;81.36;96142.41;5076428;28;20230;-70
2023/05/20 09:43:35;;;;;;;3.20;2.45;;;;;;;19.62;80.83;96144.97;5076068;28;20204;-72
2023/05/20 09:46:03;;;;;;;3.97;2.67;;;;;;;19.58;77.97;96138.47;5076623;28;20223;-69
2023/05/20 09:48:30;;;;;;;3.13;2.28;;;;;;;19.65;80.95;96139.16;5074955;28;20234;-70
2023/05/20 09:50:57;;;;;;;3.72;2.45;;;;;;;20.14;80.57;96130.56;5074911;28;20204;-76
2023/05/20 09:53:27;;;;;;;5.57;3.13;;;;;;;19.88;77.48;96126.56;5074892;28;20200;-71
2023/05/20 09:55:54;;;;;;;2.65;1.88;;;;;;;19.88;77.88;96118.53;5074893;28;20211;-75
2023/05/20 09:58:22;;;;;;;4.90;2.58;;;;;;;20.31;78.26;96118.88;5074891;28;20254;-71
2023/05/20 10:00:49;;;;;;;6.00;3.00;;;;;;;20.18;77.86;96116.47;5075680;28;20200;-71
2023/05/20 10:03:16;;;;;;;3.35;2.28;;;;;;;20.28;76.03;96114.00;5076612;28;20223;-72
2023/05/20 10:05:48;;;;;;;3.63;2.33;;;;;;;20.07;75.33;96111.97;5075606;28;20199;-71
2023/05/20 10:08:30;;;;;;;4.20;2.55;;;;;;;19.60;76.61;96094.41;5073858;28;20227;-75
2023/05/20 10:11:07;;;;;;;4.88;1.92;;;;;;;19.95;75.53;96102.38;5074854;28;20235;-73
2023/05/20 10:13:59;;;;;;;2.85;1.80;;;;;;;20.06;78.17;96098.84;5075351;28;20202;-71
2023/05/20 10:16:34;;;;;;;5.20;2.55;;;;;;;20.44;77.49;96108.69;5075785;28;20797;-74
2023/05/20 10:19:11;;;;;;;5.25;2.85;;;;;;;20.80;79.11;96099.41;5074725;28;20233;-73
2023/05/20 10:21:38;;;;;;;3.38;1.83;;;;;;;20.66;77.80;96101.56;5077002;28;20540;-77
2023/05/20 10:24:09;;;;;;;6.97;2.85;;;;;;;20.23;76.20;96106.66;5078879;28;20547;-73
2023/05/20 10:26:36;;;;;;;4.10;1.90;;;;;;;20.18;81.12;96111.13;5079880;28;20311;-72
2023/05/20 10:29:14;;;;;;;5.85;2.35;;;;;;;20.37;77.83;96104.53;5078610;28;20212;-71
2023/05/20 10:31:45;;;;;;;5.78;2.47;;;;;;;19.73;77.85;96104.06;5078994;28;20747;-73
2023/05/20 10:34:16;;;;;;;6.78;2.40;;;;;;;20.09;79.56;96101.84;5079628;28;20196;-70
2023/05/20 10:36:46;;;;;;;3.90;1.83;;;;;;;19.78;79.07;96098.78;5079731;28;20304;-73
2023/05/20 10:39:16;;;;;;;4.78;2.40;;;;;;;19.90;83.10;96107.59;5078711;28;20752;-71
2023/05/20 10:41:43;;;;;;;6.10;2.28;;;;;;;19.82;78.63;96100.75;5079063;28;20255;-72
2023/05/20 10:44:11;;;;;;;3.88;2.00;;;;;;;20.26;78.56;96094.69;5080032;28;20215;-71
2023/05/20 10:46:38;;;;;;;2.45;1.60;;;;;;;20.39;78.28;96092.53;5076269;28;20216;-72
2023/05/20 10:49:05;;;;;;;3.85;2.10;;;;;;;20.58;76.37;96088.59;5076179;28;20208;-71
2023/05/20 10:51:36;;;;;;;4.78;2.50;;;;;;;20.74;73.54;96087.00;5077754;28;20192;-70
2023/05/20 10:54:02;;;;;;;3.92;2.00;;;;;;;20.88;76.71;96087.22;5076715;28;20204;-74
2023/05/20 10:56:29;;;;;;;4.13;2.15;;;;;;;20.83;73.88;96088.22;5076317;28;20208;-71
2023/05/20 10:58:56;;;;;;;5.20;2.58;;;;;;;21.01;75.42;96086.09;5077064;28;20659;-70
2023/05/20 11:01:26;;;;;;;4.20;2.28;;;;;;;20.94;75.50;96080.91;5077402;28;20659;-71
2023/05/20 11:03:54;;;;;;;7.80;3.05;;;;;;;20.75;75.49;96078.72;5076982;28;20196;-71
2023/05/20 11:06:27;;;;;;;6.22;2.70;;;;;;;20.84;71.71;96075.38;5078048;28;20208;-75
2023/05/20 11:08:53;;;;;;;4.53;2.28;;;;;;;20.62;75.97;96072.84;5075617;28;20203;-72
2023/05/20 11:11:20;;;;;;;4.10;2.13;;;;;;;20.43;76.81;96074.09;5076254;28;20298;-76
2023/05/20 11:13:50;;;;;;;6.97;2.35;;;;;;;20.62;75.20;96062.94;5078010;28;20732;-71
2023/05/20 11:16:17;;;;;;;3.65;1.88;;;;;;;20.75;73.84;96067.19;5077281;28;20214;-72
2023/05/20 11:18:48;;;;;;;4.25;2.17;;;;;;;20.89;74.62;96054.03;5076222;28;20204;-75
2023/05/20 11:21:15;;;;;;;6.53;2.63;;;;;;;20.43;75.23;96058.88;5076622;28;20575;-71
2023/05/20 11:23:42;;;;;;;3.45;2.28;;;;;;;20.49;73.66;96049.06;5077348;28;20219;-73
2023/05/20 11:26:08;;;;;;;3.15;1.80;;;;;;;20.64;75.91;96062.69;5077296;28;20735;-75